createdAt,value
2023-05-15T00:01:18.813Z,7.65
2023-05-15T00:06:21.413Z,7.77
2023-05-15T00:11:24.007Z,7.71
2023-05-15T00:16:26.483Z,7.31
2023-05-15T00:21:29.082Z,7.58
2023-05-15T00:26:31.508Z,7.50
2023-05-15T00:31:34.016Z,6.62
2023-05-15T00:36:36.547Z,7.02
2023-05-15T00:41:39.576Z,7.03
2023-05-15T00:46:42.627Z,7.34
2023-05-15T00:51:45.089Z,7.24
2023-05-15T00:56:48.570Z,7.16
2023-05-15T01:01:52.330Z,7.05
2023-05-15T01:06:54.849Z,6.72
2023-05-15T01:11:58.159Z,6.86
2023-05-15T01:17:01.534Z,6.89
2023-05-15T01:22:22.420Z,6.80
2023-05-15T01:27:36.309Z,6.88
2023-05-15T01:32:56.221Z,6.44
2023-05-15T01:38:04.582Z,6.99
2023-05-15T01:43:10.124Z,6.59
2023-05-15T01:48:13.320Z,6.60
2023-05-15T01:53:16.009Z,6.09
2023-05-15T01:58:19.092Z,5.23
2023-05-15T02:03:22.912Z,6.51
2023-05-15T02:08:26.470Z,6.43
2023-05-15T02:13:29.558Z,6.60
2023-05-15T02:18:32.077Z,6.59
2023-05-15T02:23:54.518Z,6.55
2023-05-15T02:29:30.937Z,6.83
2023-05-15T02:34:53.859Z,6.81
2023-05-15T02:40:00.194Z,6.42
2023-05-15T02:45:03.754Z,6.58
2023-05-15T02:50:07.787Z,6.60
2023-05-15T02:55:10.827Z,6.80
2023-05-15T03:00:14.053Z,6.94
2023-05-15T03:05:16.790Z,7.00
2023-05-15T03:10:19.312Z,6.46
2023-05-15T03:15:22.460Z,7.17
2023-05-15T03:20:25.218Z,7.28
2023-05-15T03:25:28.006Z,7.21
2023-05-15T03:30:30.699Z,7.49
2023-05-15T03:35:34.218Z,7.65
2023-05-15T03:40:41.379Z,7.78
2023-05-15T03:45:44.369Z,7.98
2023-05-15T03:50:46.940Z,8.15
2023-05-15T03:55:49.608Z,8.57
2023-05-15T04:00:52.145Z,8.56
2023-05-15T04:05:54.695Z,9.30
2023-05-15T04:10:57.247Z,9.67
2023-05-15T04:16:01.306Z,9.59
2023-05-15T04:21:04.115Z,9.99
2023-05-15T04:26:06.594Z,10.16
2023-05-15T04:31:09.188Z,10.71
2023-05-15T04:36:11.809Z,10.47
2023-05-15T04:41:14.403Z,10.96
2023-05-15T04:46:17.071Z,11.17
2023-05-15T04:51:19.614Z,11.07
2023-05-15T04:56:22.076Z,11.89
2023-05-15T05:01:24.589Z,11.99
2023-05-15T05:06:28.608Z,12.02
2023-05-15T05:11:32.312Z,12.56
2023-05-15T05:16:35.108Z,12.62
2023-05-15T05:21:37.628Z,12.73
2023-05-15T05:26:40.068Z,13.09
2023-05-15T05:31:42.594Z,13.23
2023-05-15T05:36:45.084Z,13.61
2023-05-15T05:41:47.550Z,13.74
2023-05-15T05:46:49.999Z,13.82
2023-05-15T05:51:53.042Z,13.97
2023-05-15T05:56:55.475Z,14.33
2023-05-15T06:01:58.244Z,14.43
2023-05-15T06:07:00.692Z,14.38
2023-05-15T06:12:05.466Z,14.82
2023-05-15T06:17:08.311Z,14.87
2023-05-15T06:22:10.906Z,14.71
2023-05-15T06:27:13.340Z,14.52
2023-05-15T06:32:15.820Z,14.87
2023-05-15T06:37:21.701Z,15.08
2023-05-15T06:42:24.106Z,15.41
2023-05-15T06:47:26.655Z,15.55
2023-05-15T06:52:29.758Z,15.40
2023-05-15T06:57:33.794Z,15.63
2023-05-15T07:02:36.348Z,16.17
2023-05-15T07:07:38.904Z,16.14
2023-05-15T07:12:41.591Z,16.35
2023-05-15T07:17:44.220Z,16.53
2023-05-15T07:22:55.822Z,16.34
2023-05-15T07:27:59.679Z,16.84
2023-05-15T07:33:02.186Z,16.92
2023-05-15T07:38:05.016Z,17.12
2023-05-15T07:43:07.599Z,17.25
2023-05-15T07:48:17.504Z,17.12
2023-05-15T07:53:23.083Z,17.42
2023-05-15T07:58:26.615Z,17.45
2023-05-15T08:03:29.501Z,17.87
2023-05-15T08:08:32.109Z,17.88
2023-05-15T08:13:34.725Z,18.15
2023-05-15T08:18:37.733Z,18.17
2023-05-15T08:23:40.242Z,18.18
2023-05-15T08:28:42.969Z,18.77
2023-05-15T08:33:46.948Z,18.79
2023-05-15T08:38:49.436Z,18.39
2023-05-15T08:43:53.571Z,18.52
2023-05-15T08:48:56.998Z,18.83
2023-05-15T08:53:59.876Z,18.71
2023-05-15T08:59:02.476Z,18.67
2023-05-15T09:04:05.461Z,19.14
2023-05-15T09:09:13.377Z,19.41
2023-05-15T09:14:15.862Z,19.36
2023-05-15T09:19:23.425Z,19.47
2023-05-15T09:24:28.663Z,19.41
2023-05-15T09:29:32.151Z,19.67
2023-05-15T09:34:39.315Z,19.65
2023-05-15T09:39:43.330Z,19.44
2023-05-15T09:44:46.779Z,19.60
2023-05-15T09:49:49.244Z,19.47
2023-05-15T09:54:52.629Z,19.73
2023-05-15T09:59:55.366Z,19.79
2023-05-15T10:05:00.174Z,20.08
2023-05-15T10:10:04.496Z,20.02
2023-05-15T10:15:09.556Z,20.01
2023-05-15T10:20:12.876Z,20.18
2023-05-15T10:25:36.656Z,20.38
2023-05-15T10:30:39.551Z,20.30
2023-05-15T10:35:43.126Z,20.48
2023-05-15T10:40:45.674Z,20.59
2023-05-15T10:45:48.270Z,20.72
2023-05-15T10:50:51.340Z,20.83
2023-05-15T10:55:54.086Z,20.75
2023-05-15T11:00:56.588Z,20.74
2023-05-15T11:06:13.125Z,20.92
2023-05-15T11:11:56.241Z,21.06
2023-05-15T11:17:00.884Z,20.70
2023-05-15T11:22:09.653Z,21.10
2023-05-15T11:27:13.522Z,21.36
2023-05-15T11:32:43.888Z,21.30
2023-05-15T11:37:48.160Z,21.19
2023-05-15T11:43:20.343Z,21.17
2023-05-15T11:48:24.523Z,21.02
2023-05-15T11:53:27.416Z,21.15
2023-05-15T11:58:30.044Z,21.29
2023-05-15T12:03:38.944Z,21.32
2023-05-15T12:08:42.596Z,21.13
2023-05-15T12:13:45.106Z,21.43
2023-05-15T12:18:48.059Z,21.31
2023-05-15T12:28:58.815Z,20.93
2023-05-15T12:34:01.492Z,21.21
2023-05-15T12:39:08.466Z,20.88
2023-05-15T12:44:20.766Z,21.42
2023-05-15T12:49:23.579Z,21.60
2023-05-15T12:54:26.704Z,21.57
2023-05-15T12:59:29.723Z,21.17
2023-05-15T13:04:35.440Z,21.09
2023-05-15T13:09:38.160Z,21.54
2023-05-15T13:14:42.974Z,21.53
2023-05-15T13:19:45.464Z,21.43
2023-05-15T13:24:47.962Z,21.14
2023-05-15T13:29:50.449Z,21.35
2023-05-15T13:34:55.091Z,21.55
2023-05-15T13:39:57.520Z,21.44
2023-05-15T13:45:00.024Z,21.01
2023-05-15T13:50:15.867Z,21.40
2023-05-15T13:55:18.944Z,21.01
2023-05-15T14:00:23.947Z,21.49
2023-05-15T14:05:28.107Z,21.42
2023-05-15T14:10:30.768Z,21.36
2023-05-15T14:15:34.005Z,21.27
2023-05-15T14:20:36.727Z,21.14
2023-05-15T14:25:39.296Z,21.09
2023-05-15T14:30:41.961Z,20.86
2023-05-15T14:35:44.464Z,20.48
2023-05-15T14:40:46.998Z,20.10
2023-05-15T14:45:49.485Z,20.44
2023-05-15T14:50:52.057Z,20.11
2023-05-15T14:55:58.931Z,20.58
2023-05-15T15:01:01.448Z,19.92
2023-05-15T15:06:04.512Z,19.04
2023-05-15T15:11:08.148Z,20.15
2023-05-15T15:16:10.885Z,19.80
2023-05-15T15:21:13.605Z,19.73
2023-05-15T15:26:16.141Z,20.00
2023-05-15T15:31:19.085Z,19.98
2023-05-15T15:36:22.201Z,19.68
2023-05-15T15:41:24.807Z,19.51
2023-05-15T15:46:27.582Z,19.52
2023-05-15T15:51:30.257Z,19.46
2023-05-15T15:56:32.832Z,19.40
2023-05-15T16:01:35.397Z,18.73
2023-05-15T16:06:38.981Z,18.97
2023-05-15T16:11:41.423Z,19.00
2023-05-15T16:16:43.921Z,18.92
2023-05-15T16:21:47.954Z,19.05
2023-05-15T16:26:51.687Z,18.89
2023-05-15T16:31:54.375Z,18.52
2023-05-15T16:36:57.530Z,18.65
2023-05-15T16:42:00.645Z,18.42
2023-05-15T16:47:03.502Z,18.43
2023-05-15T16:52:06.775Z,18.19
2023-05-15T16:57:09.264Z,17.77
2023-05-15T17:02:11.822Z,18.06
2023-05-15T17:07:14.413Z,17.56
2023-05-15T17:12:17.224Z,16.64
2023-05-15T17:17:19.775Z,17.23
2023-05-15T17:22:23.210Z,17.51
2023-05-15T17:27:25.859Z,17.06
2023-05-15T17:32:28.528Z,16.80
2023-05-15T17:37:31.229Z,16.55
2023-05-15T17:42:33.745Z,16.65
2023-05-15T17:47:36.325Z,16.40
2023-05-15T17:52:38.944Z,16.05
2023-05-15T17:57:41.683Z,16.44
2023-05-15T18:02:44.216Z,16.29
2023-05-15T18:07:48.590Z,15.88
2023-05-15T18:12:51.233Z,16.02
2023-05-15T18:17:53.795Z,15.69
2023-05-15T18:22:56.331Z,15.42
2023-05-15T18:27:59.017Z,15.40
2023-05-15T18:33:01.839Z,15.31
2023-05-15T18:38:04.634Z,15.31
2023-05-15T18:43:08.497Z,15.09
2023-05-15T18:48:11.086Z,14.82
2023-05-15T18:53:13.797Z,14.38
2023-05-15T18:58:16.788Z,14.78
2023-05-15T19:03:21.167Z,14.26
2023-05-15T19:08:23.939Z,14.25
2023-05-15T19:13:30.159Z,14.32
2023-05-15T19:18:32.784Z,14.12
2023-05-15T19:23:35.542Z,13.99
2023-05-15T19:28:38.161Z,14.03
2023-05-15T19:33:43.352Z,14.03
2023-05-15T19:38:46.116Z,13.38
2023-05-15T19:43:50.986Z,13.76
2023-05-15T19:48:54.446Z,13.51
2023-05-15T19:53:57.097Z,13.43
2023-05-15T19:59:00.880Z,13.50
2023-05-15T20:04:03.710Z,13.03
2023-05-15T20:09:06.462Z,13.21
2023-05-15T20:14:09.057Z,13.21
2023-05-15T20:19:17.052Z,12.88
2023-05-15T20:24:19.913Z,12.77
2023-05-15T20:29:23.211Z,12.64
2023-05-15T20:34:25.797Z,10.89
2023-05-15T20:39:28.306Z,12.49
2023-05-15T20:44:31.063Z,12.43
2023-05-15T20:49:33.599Z,12.31
2023-05-15T20:54:36.155Z,12.54
2023-05-15T20:59:38.660Z,12.32
2023-05-15T21:04:41.603Z,12.23
2023-05-15T21:09:44.245Z,11.67
2023-05-15T21:14:47.077Z,11.94
2023-05-15T21:19:49.959Z,11.10
2023-05-15T21:24:52.710Z,11.12
2023-05-15T21:29:55.382Z,11.41
2023-05-15T21:34:57.831Z,10.46
2023-05-15T21:40:00.553Z,11.71
2023-05-15T21:45:07.127Z,11.66
2023-05-15T21:50:09.969Z,10.78
2023-05-15T21:55:12.387Z,11.23
2023-05-15T22:00:16.559Z,11.56
2023-05-15T22:05:19.142Z,11.49
2023-05-15T22:10:22.680Z,11.37
2023-05-15T22:15:25.190Z,11.06
2023-05-15T22:20:29.503Z,10.76
2023-05-15T22:25:32.182Z,10.98
2023-05-15T22:30:35.465Z,10.95
2023-05-15T22:35:38.299Z,10.88
2023-05-15T22:40:40.969Z,10.49
2023-05-15T22:45:43.731Z,10.29
2023-05-15T22:50:46.453Z,10.50
2023-05-15T22:55:49.147Z,10.35
2023-05-15T23:00:52.146Z,10.39
2023-05-15T23:05:55.185Z,9.93
2023-05-15T23:10:57.905Z,10.43
2023-05-15T23:16:00.758Z,9.93
2023-05-15T23:21:05.112Z,9.57
2023-05-15T23:26:08.076Z,10.20
2023-05-15T23:31:13.428Z,10.09
2023-05-15T23:36:16.469Z,10.02
2023-05-15T23:41:19.598Z,9.94
2023-05-15T23:46:22.656Z,9.78
2023-05-15T23:51:25.345Z,9.77
2023-05-15T23:56:27.769Z,9.72
